createdAt,value
2019-05-09T00:02:33.718Z,18.70
2019-05-09T00:05:05.231Z,18.70
2019-05-09T00:07:35.697Z,18.70
2019-05-09T00:10:06.302Z,18.60
2019-05-09T00:12:36.781Z,18.70
2019-05-09T00:15:07.506Z,18.60
2019-05-09T00:17:38.097Z,18.60
2019-05-09T00:20:17.554Z,18.60
2019-05-09T00:22:47.963Z,18.60
2019-05-09T00:25:18.266Z,18.60
2019-05-09T00:27:48.720Z,18.60
2019-05-09T00:30:23.637Z,18.60
2019-05-09T00:32:53.997Z,18.60
2019-05-09T00:35:33.798Z,18.60
2019-05-09T00:38:05.518Z,18.60
2019-05-09T00:40:35.808Z,18.60
2019-05-09T00:43:06.265Z,18.60
2019-05-09T00:46:04.079Z,18.50
2019-05-09T00:48:53.431Z,18.50
2019-05-09T00:51:35.501Z,18.50
2019-05-09T00:54:06.028Z,18.50
2019-05-09T00:56:36.519Z,18.50
2019-05-09T00:59:07.143Z,18.50
2019-05-09T01:01:37.591Z,18.50
2019-05-09T01:04:08.090Z,18.50
2019-05-09T01:06:38.587Z,18.50
2019-05-09T01:09:08.988Z,18.50
2019-05-09T01:11:39.380Z,18.50
2019-05-09T01:14:09.842Z,18.50
2019-05-09T01:16:40.377Z,18.40
2019-05-09T01:19:10.802Z,18.50
2019-05-09T01:21:41.127Z,18.50
2019-05-09T01:24:13.733Z,18.50
2019-05-09T01:26:43.839Z,18.40
2019-05-09T01:29:14.232Z,18.40
2019-05-09T01:31:44.708Z,18.50
2019-05-09T01:34:23.820Z,18.40
2019-05-09T01:37:14.048Z,18.40
2019-05-09T01:39:44.788Z,18.40
2019-05-09T01:42:15.358Z,18.40
2019-05-09T01:44:46.003Z,18.40
2019-05-09T01:47:16.416Z,18.40
2019-05-09T01:49:46.925Z,18.40
2019-05-09T01:52:17.509Z,18.40
2019-05-09T01:54:49.611Z,18.40
2019-05-09T01:57:20.140Z,18.40
2019-05-09T01:59:50.613Z,18.40
2019-05-09T02:02:20.982Z,18.30
2019-05-09T02:04:53.290Z,18.40
2019-05-09T02:07:23.799Z,18.30
2019-05-09T02:09:54.275Z,18.30
2019-05-09T02:12:24.841Z,18.30
2019-05-09T02:15:07.991Z,18.30
2019-05-09T02:17:58.955Z,18.30
2019-05-09T02:20:25.982Z,18.30
2019-05-09T02:22:56.301Z,18.30
2019-05-09T02:25:26.592Z,18.30
2019-05-09T02:27:57.049Z,18.30
2019-05-09T02:30:27.489Z,18.30
2019-05-09T02:32:57.898Z,18.30
2019-05-09T02:35:31.973Z,18.30
2019-05-09T02:38:00.376Z,18.30
2019-05-09T02:40:30.705Z,18.30
2019-05-09T02:43:01.190Z,18.30
2019-05-09T02:45:38.981Z,18.30
2019-05-09T02:48:09.721Z,18.30
2019-05-09T02:50:40.017Z,18.20
2019-05-09T02:53:10.431Z,18.30
2019-05-09T02:55:40.788Z,18.20
2019-05-09T02:58:12.698Z,18.20
2019-05-09T03:01:14.150Z,18.20
2019-05-09T03:03:44.587Z,18.20
2019-05-09T03:06:34.051Z,18.20
2019-05-09T03:09:08.672Z,18.20
2019-05-09T03:11:38.912Z,18.20
2019-05-09T03:14:09.655Z,18.20
2019-05-09T03:16:40.191Z,18.20
2019-05-09T03:19:10.804Z,18.20
2019-05-09T03:21:49.815Z,18.20
2019-05-09T03:24:20.249Z,18.20
2019-05-09T03:26:55.808Z,18.20
2019-05-09T03:29:39.655Z,18.20
2019-05-09T03:32:09.631Z,18.20
2019-05-09T03:34:40.364Z,18.20
2019-05-09T03:37:10.788Z,18.20
2019-05-09T03:39:41.268Z,18.20
2019-05-09T03:42:11.829Z,18.20
2019-05-09T03:44:42.391Z,18.20
2019-05-09T03:47:24.816Z,18.20
2019-05-09T03:50:12.434Z,18.20
2019-05-09T03:53:01.990Z,18.30
2019-05-09T03:55:35.363Z,18.20
2019-05-09T03:58:12.331Z,18.20
2019-05-09T04:00:42.900Z,18.20
2019-05-09T04:03:13.302Z,18.30
2019-05-09T04:05:55.365Z,18.30
2019-05-09T04:08:21.889Z,18.30
2019-05-09T04:10:52.887Z,18.30
2019-05-09T04:13:42.322Z,18.30
2019-05-09T04:16:12.828Z,18.30
2019-05-09T04:18:43.365Z,18.30
2019-05-09T04:21:13.729Z,18.30
2019-05-09T04:23:44.167Z,18.40
2019-05-09T04:26:45.806Z,18.40
2019-05-09T04:29:28.730Z,18.40
2019-05-09T04:31:59.351Z,18.50
2019-05-09T04:34:29.679Z,18.50
2019-05-09T04:37:00.072Z,18.50
2019-05-09T04:39:30.480Z,18.60
2019-05-09T04:42:05.321Z,18.60
2019-05-09T04:44:41.338Z,18.70
2019-05-09T04:47:11.946Z,18.70
2019-05-09T04:49:45.339Z,18.70
2019-05-09T04:52:17.887Z,18.80
2019-05-09T04:54:48.477Z,18.80
2019-05-09T04:57:19.104Z,18.80
2019-05-09T04:59:49.588Z,18.90
2019-05-09T05:02:54.241Z,18.90
2019-05-09T05:05:24.721Z,18.90
2019-05-09T05:07:57.242Z,18.90
2019-05-09T05:10:27.412Z,19.00
2019-05-09T05:12:57.903Z,19.00
2019-05-09T05:15:28.431Z,19.00
2019-05-09T05:17:58.828Z,19.00
2019-05-09T05:20:30.535Z,19.10
2019-05-09T05:23:11.094Z,19.10
2019-05-09T05:25:41.879Z,19.10
2019-05-09T05:28:12.235Z,19.10
2019-05-09T05:30:42.564Z,19.20
2019-05-09T05:33:38.258Z,19.20
2019-05-09T05:36:09.734Z,19.30
2019-05-09T05:38:40.137Z,19.30
2019-05-09T05:41:12.919Z,19.40
2019-05-09T05:43:44.748Z,19.40
2019-05-09T05:46:40.291Z,19.40
2019-05-09T05:49:10.823Z,19.40
2019-05-09T05:51:50.090Z,19.50
2019-05-09T05:54:21.095Z,19.50
2019-05-09T05:56:51.660Z,19.50
2019-05-09T05:59:22.249Z,19.60
2019-05-09T06:01:54.343Z,19.60
2019-05-09T06:04:27.402Z,19.60
2019-05-09T06:06:58.884Z,19.60
2019-05-09T06:09:29.392Z,19.60
2019-05-09T06:12:19.232Z,19.70
2019-05-09T06:14:50.421Z,19.70
2019-05-09T06:17:21.835Z,19.70
2019-05-09T06:19:52.832Z,19.70
2019-05-09T06:23:05.684Z,19.70
2019-05-09T06:25:49.946Z,19.80
2019-05-09T06:31:08.214Z,19.80
2019-05-09T06:33:45.980Z,19.90
2019-05-09T06:36:22.268Z,19.90
2019-05-09T06:39:01.100Z,19.90
2019-05-09T06:41:37.788Z,20.00
2019-05-09T06:44:31.094Z,20.00
2019-05-09T06:52:37.859Z,20.30
2019-05-09T07:01:42.835Z,20.50
2019-05-09T07:04:37.869Z,20.50
2019-05-09T07:07:17.810Z,20.60
2019-05-09T07:10:12.849Z,20.70
2019-05-09T07:18:32.484Z,20.80
2019-05-09T07:21:03.549Z,20.80
2019-05-09T07:23:41.278Z,21.00
2019-05-09T07:29:14.240Z,21.00
2019-05-09T07:42:51.165Z,21.20
2019-05-09T07:45:24.060Z,21.20
2019-05-09T07:47:54.631Z,21.30
2019-05-09T07:50:27.504Z,21.30
2019-05-09T07:52:59.548Z,21.30
2019-05-09T08:03:45.204Z,21.50
2019-05-09T08:06:18.311Z,21.50
2019-05-09T08:08:48.334Z,21.50
2019-05-09T08:19:54.413Z,21.80
2019-05-09T08:22:31.885Z,21.80
2019-05-09T08:27:30.397Z,21.90
2019-05-09T08:43:43.782Z,22.00
2019-05-09T08:46:28.883Z,22.00
2019-05-09T08:55:04.095Z,22.00
2019-05-09T08:57:43.476Z,22.00
2019-05-09T09:00:21.914Z,22.00
2019-05-09T09:09:03.120Z,22.10
2019-05-09T09:17:40.735Z,22.10
2019-05-09T09:23:17.877Z,22.10
2019-05-09T09:31:12.953Z,22.10
2019-05-09T09:34:10.525Z,22.20
2019-05-09T09:40:05.446Z,22.20
2019-05-09T09:42:41.877Z,22.20
2019-05-09T09:50:51.899Z,22.30
2019-05-09T09:59:12.910Z,22.40
2019-05-09T10:01:49.199Z,22.40
2019-05-09T10:04:24.338Z,22.40
2019-05-09T10:06:54.702Z,22.40
2019-05-09T10:09:28.817Z,22.50
2019-05-09T10:12:00.724Z,22.50
2019-05-09T10:14:37.555Z,22.50
2019-05-09T10:17:27.990Z,22.40
2019-05-09T10:20:31.702Z,22.30
2019-05-09T10:23:11.225Z,22.20
2019-05-09T10:25:34.354Z,22.10
2019-05-09T10:28:05.355Z,22.00
2019-05-09T10:30:38.059Z,22.00
2019-05-09T10:33:09.156Z,21.90
2019-05-09T10:35:40.510Z,21.80
2019-05-09T10:38:31.697Z,21.70
2019-05-09T10:41:02.504Z,21.60
2019-05-09T10:43:53.080Z,21.50
2019-05-09T10:46:48.316Z,21.50
2019-05-09T10:49:09.992Z,21.40
2019-05-09T10:51:44.314Z,21.30
2019-05-09T10:54:19.283Z,21.30
2019-05-09T10:56:53.209Z,21.20
2019-05-09T10:59:31.679Z,21.20
2019-05-09T11:02:09.689Z,21.10
2019-05-09T11:04:46.337Z,21.10
2019-05-09T11:07:14.483Z,21.10
2019-05-09T11:09:44.969Z,21.20
2019-05-09T11:12:18.043Z,21.20
2019-05-09T11:14:48.814Z,21.20
2019-05-09T11:17:21.950Z,21.20
2019-05-09T11:19:58.454Z,21.20
2019-05-09T11:22:33.383Z,21.20
2019-05-09T11:25:03.829Z,21.20
2019-05-09T11:27:34.139Z,21.20
2019-05-09T11:30:05.308Z,21.10
2019-05-09T11:32:38.754Z,21.10
2019-05-09T11:35:10.157Z,21.10
2019-05-09T11:37:41.962Z,21.10
2019-05-09T11:40:18.711Z,21.00
2019-05-09T11:42:50.683Z,20.90
2019-05-09T11:45:22.015Z,20.90
2019-05-09T11:47:52.448Z,20.90
2019-05-09T11:50:25.876Z,20.90
2019-05-09T11:52:59.749Z,20.90
2019-05-09T11:55:35.687Z,21.00
2019-05-09T11:58:02.990Z,21.00
2019-05-09T12:00:33.968Z,20.90
2019-05-09T12:03:09.066Z,21.00
2019-05-09T12:05:47.601Z,20.90
2019-05-09T12:08:38.542Z,20.90
2019-05-09T12:11:18.357Z,20.90
2019-05-09T12:13:51.793Z,20.90
2019-05-09T12:16:23.108Z,20.90
2019-05-09T12:21:37.875Z,20.90
2019-05-09T12:24:24.241Z,20.90
2019-05-09T12:26:51.014Z,21.00
2019-05-09T12:37:23.768Z,21.20
2019-05-09T12:39:58.388Z,21.30
2019-05-09T12:42:51.945Z,21.30
2019-05-09T12:45:35.795Z,21.40
2019-05-09T12:53:58.832Z,21.60
2019-05-09T12:56:29.379Z,21.60
2019-05-09T12:59:00.994Z,21.70
2019-05-09T13:01:58.035Z,21.70
2019-05-09T13:04:28.484Z,21.70
2019-05-09T13:07:08.575Z,21.80
2019-05-09T13:12:17.868Z,21.80
2019-05-09T13:14:45.519Z,21.90
2019-05-09T13:17:31.672Z,21.80
2019-05-09T13:20:02.852Z,21.90
2019-05-09T13:22:33.440Z,21.90
2019-05-09T13:25:06.611Z,21.90
2019-05-09T13:27:38.691Z,21.90
2019-05-09T13:30:14.389Z,21.90
2019-05-09T13:32:48.404Z,21.90
2019-05-09T13:35:19.767Z,21.90
2019-05-09T13:37:50.790Z,22.00
2019-05-09T13:40:29.135Z,22.00
2019-05-09T13:43:21.324Z,22.00
2019-05-09T13:46:05.072Z,22.00
2019-05-09T13:48:55.234Z,22.00
2019-05-09T13:51:07.581Z,22.00
2019-05-09T13:56:37.151Z,22.00
2019-05-09T13:59:09.432Z,22.00
2019-05-09T14:01:41.902Z,22.00
2019-05-09T14:06:48.718Z,22.00
2019-05-09T14:09:20.043Z,21.90
2019-05-09T14:11:53.447Z,21.90
2019-05-09T14:16:51.947Z,21.90
2019-05-09T14:19:47.167Z,21.90
2019-05-09T14:25:11.899Z,21.90
2019-05-09T14:27:42.386Z,21.80
2019-05-09T14:30:13.004Z,21.70
2019-05-09T14:32:43.679Z,21.70
2019-05-09T14:35:14.115Z,21.70
2019-05-09T14:37:44.595Z,21.70
2019-05-09T14:40:17.434Z,21.60
2019-05-09T14:42:49.302Z,21.60
2019-05-09T14:45:20.109Z,21.60
2019-05-09T14:47:52.042Z,21.60
2019-05-09T14:50:23.076Z,21.60
2019-05-09T14:52:53.841Z,21.50
2019-05-09T14:55:24.683Z,21.50
2019-05-09T14:57:59.237Z,21.50
2019-05-09T15:00:30.244Z,21.50
2019-05-09T15:03:00.560Z,21.50
2019-05-09T15:05:33.745Z,21.50
2019-05-09T15:08:04.737Z,21.40
2019-05-09T15:10:38.409Z,21.40
2019-05-09T15:13:07.932Z,21.40
2019-05-09T15:15:42.475Z,21.40
2019-05-09T15:18:13.034Z,21.40
2019-05-09T15:20:43.682Z,21.40
2019-05-09T15:23:25.873Z,21.40
2019-05-09T15:25:58.137Z,21.30
2019-05-09T15:28:29.732Z,21.40
2019-05-09T15:31:00.142Z,21.40
2019-05-09T15:33:30.659Z,21.40
2019-05-09T15:36:01.262Z,21.30
2019-05-09T15:38:31.931Z,21.30
2019-05-09T15:41:02.445Z,21.30
2019-05-09T15:43:32.920Z,21.30
2019-05-09T15:46:18.607Z,21.30
2019-05-09T15:48:49.401Z,21.30
2019-05-09T15:51:20.010Z,21.30
2019-05-09T15:53:50.557Z,21.30
2019-05-09T15:56:21.053Z,21.30
2019-05-09T15:58:51.568Z,21.30
2019-05-09T16:01:22.029Z,21.30
2019-05-09T16:03:52.645Z,21.20
2019-05-09T16:06:50.854Z,21.20
2019-05-09T16:11:53.132Z,21.10
2019-05-09T16:16:54.595Z,21.00
2019-05-09T16:19:25.039Z,21.00
2019-05-09T16:21:55.528Z,21.00
2019-05-09T16:24:28.017Z,20.90
2019-05-09T16:26:58.176Z,20.90
2019-05-09T16:29:31.886Z,20.90
2019-05-09T16:31:59.769Z,20.80
2019-05-09T16:39:42.001Z,20.70
2019-05-09T16:42:12.461Z,20.70
2019-05-09T16:44:43.036Z,20.70
2019-05-09T16:50:03.353Z,20.60
2019-05-09T16:52:33.157Z,20.60
2019-05-09T16:55:12.062Z,20.50
2019-05-09T16:57:45.837Z,20.50
2019-05-09T17:00:34.236Z,20.50
2019-05-09T17:03:05.255Z,20.50
2019-05-09T17:05:37.424Z,20.40
2019-05-09T17:08:34.805Z,20.40
2019-05-09T17:11:27.719Z,20.40
2019-05-09T17:16:37.689Z,20.30
2019-05-09T17:19:28.288Z,20.30
2019-05-09T17:22:30.069Z,20.30
2019-05-09T17:24:59.429Z,20.30
2019-05-09T17:27:29.826Z,20.30
2019-05-09T17:30:00.322Z,20.30
2019-05-09T17:32:30.813Z,20.30
2019-05-09T17:35:01.246Z,20.30
2019-05-09T17:37:31.666Z,20.20
2019-05-09T17:40:21.087Z,20.20
2019-05-09T17:42:51.535Z,20.20
2019-05-09T17:45:21.956Z,20.10
2019-05-09T17:47:52.401Z,20.10
2019-05-09T17:50:22.750Z,20.10
2019-05-09T17:52:53.187Z,20.10
2019-05-09T17:55:23.545Z,20.10
2019-05-09T17:57:54.018Z,20.10
2019-05-09T18:00:24.440Z,20.00
2019-05-09T18:02:54.943Z,20.00
2019-05-09T18:05:25.349Z,20.00
2019-05-09T18:07:57.786Z,20.00
2019-05-09T18:10:27.853Z,19.90
2019-05-09T18:12:58.796Z,20.00
2019-05-09T18:15:29.320Z,19.90
2019-05-09T18:17:59.774Z,19.90
2019-05-09T18:20:30.148Z,19.90
2019-05-09T18:23:03.292Z,19.90
2019-05-09T18:25:32.810Z,19.90
2019-05-09T18:28:04.692Z,19.80
2019-05-09T18:30:35.015Z,19.80
2019-05-09T18:33:24.566Z,19.80
2019-05-09T18:35:55.017Z,19.80
2019-05-09T18:38:28.209Z,19.80
2019-05-09T18:40:58.845Z,19.70
2019-05-09T18:43:29.497Z,19.70
2019-05-09T18:45:59.918Z,19.70
2019-05-09T18:48:31.441Z,19.70
2019-05-09T18:51:01.964Z,19.70
2019-05-09T18:53:32.421Z,19.60
2019-05-09T18:56:02.905Z,19.60
2019-05-09T18:58:35.934Z,19.60
2019-05-09T19:01:05.604Z,19.60
2019-05-09T19:03:36.095Z,19.60
2019-05-09T19:06:06.618Z,19.50
2019-05-09T19:08:37.193Z,19.50
2019-05-09T19:11:07.762Z,19.50
2019-05-09T19:13:38.216Z,19.50
2019-05-09T19:16:29.069Z,19.50
2019-05-09T19:19:17.138Z,19.40
2019-05-09T19:21:54.063Z,19.40
2019-05-09T19:24:24.466Z,19.40
2019-05-09T19:26:54.964Z,19.40
2019-05-09T19:29:25.321Z,19.40
2019-05-09T19:31:55.775Z,19.40
2019-05-09T19:34:26.216Z,19.40
2019-05-09T19:36:56.633Z,19.50
2019-05-09T19:39:30.273Z,19.60
2019-05-09T19:42:00.991Z,19.60
2019-05-09T19:44:31.467Z,19.70
2019-05-09T19:47:02.139Z,19.70
2019-05-09T19:49:32.656Z,19.80
2019-05-09T19:52:05.618Z,19.80
2019-05-09T19:54:36.089Z,19.80
2019-05-09T19:57:09.443Z,19.80
2019-05-09T19:59:40.004Z,19.90
2019-05-09T20:02:14.046Z,19.90
2019-05-09T20:04:49.464Z,19.90
2019-05-09T20:07:17.254Z,19.90
2019-05-09T20:09:52.893Z,19.90
2019-05-09T20:12:30.209Z,20.00
2019-05-09T20:15:00.738Z,20.00
2019-05-09T20:17:31.256Z,20.00
2019-05-09T20:20:01.752Z,20.00
2019-05-09T20:22:53.183Z,20.00
2019-05-09T20:25:23.086Z,20.00
2019-05-09T20:27:58.289Z,20.00
2019-05-09T20:30:29.946Z,20.00
2019-05-09T20:33:00.415Z,20.00
2019-05-09T20:35:29.977Z,20.00
2019-05-09T20:38:00.565Z,20.00
2019-05-09T20:40:31.167Z,20.00
2019-05-09T20:43:01.876Z,20.00
2019-05-09T20:45:32.140Z,20.10
2019-05-09T20:48:21.846Z,20.10
2019-05-09T20:50:55.035Z,20.00
2019-05-09T20:53:25.733Z,20.00
2019-05-09T20:55:56.451Z,20.00
2019-05-09T20:58:27.050Z,20.10
2019-05-09T21:01:01.152Z,20.00
2019-05-09T21:03:32.120Z,20.00
2019-05-09T21:06:02.728Z,20.10
2019-05-09T21:08:33.408Z,20.00
2019-05-09T21:11:04.097Z,20.00
2019-05-09T21:13:47.537Z,20.00
2019-05-09T21:16:07.142Z,20.00
2019-05-09T21:18:37.882Z,20.10
2019-05-09T21:21:09.750Z,20.10
2019-05-09T21:23:40.311Z,20.10
2019-05-09T21:26:11.093Z,20.10
2019-05-09T21:28:42.039Z,20.10
2019-05-09T21:31:12.787Z,20.10
2019-05-09T21:33:43.506Z,20.10
2019-05-09T21:36:13.942Z,20.10
2019-05-09T21:38:48.285Z,20.10
2019-05-09T21:41:13.795Z,20.20
2019-05-09T21:43:44.255Z,20.20
2019-05-09T21:46:17.405Z,20.20
2019-05-09T21:48:49.373Z,20.20
2019-05-09T21:51:19.845Z,20.20
2019-05-09T21:53:50.281Z,20.20
2019-05-09T21:56:20.784Z,20.20
2019-05-09T21:58:51.175Z,20.20
2019-05-09T22:01:21.432Z,20.20
2019-05-09T22:03:51.898Z,20.10
2019-05-09T22:06:22.363Z,20.10
2019-05-09T22:08:52.928Z,20.10
2019-05-09T22:11:42.415Z,20.10
2019-05-09T22:14:12.828Z,20.10
2019-05-09T22:16:43.832Z,20.10
2019-05-09T22:19:14.259Z,20.10
2019-05-09T22:21:44.597Z,20.10
2019-05-09T22:24:15.053Z,20.10
2019-05-09T22:26:45.365Z,20.10
2019-05-09T22:29:15.823Z,20.10
2019-05-09T22:31:46.215Z,20.10
2019-05-09T22:34:16.646Z,20.10
2019-05-09T22:36:47.093Z,20.10
2019-05-09T22:39:17.532Z,20.10
2019-05-09T22:41:51.554Z,20.10
2019-05-09T22:44:22.013Z,20.10
2019-05-09T22:46:52.377Z,20.10
2019-05-09T22:49:22.799Z,20.10
2019-05-09T22:51:53.293Z,20.10
2019-05-09T22:54:23.725Z,20.10
2019-05-09T22:56:54.256Z,20.00
2019-05-09T22:59:24.743Z,20.10
2019-05-09T23:01:58.621Z,20.00
2019-05-09T23:04:29.110Z,20.10
2019-05-09T23:06:59.624Z,20.10
2019-05-09T23:09:29.978Z,20.00
2019-05-09T23:12:00.427Z,20.00
2019-05-09T23:14:30.922Z,20.00
2019-05-09T23:17:01.610Z,20.10
2019-05-09T23:19:32.149Z,20.00
2019-05-09T23:22:02.779Z,20.00
2019-05-09T23:24:34.158Z,20.00
2019-05-09T23:27:04.669Z,20.00
2019-05-09T23:29:35.029Z,20.00
2019-05-09T23:32:24.438Z,20.00
2019-05-09T23:34:54.862Z,20.00
2019-05-09T23:37:25.277Z,20.00
2019-05-09T23:39:58.763Z,20.00
2019-05-09T23:42:48.218Z,20.00
2019-05-09T23:45:18.615Z,20.00
2019-05-09T23:47:52.721Z,20.00
2019-05-09T23:50:23.126Z,20.00
2019-05-09T23:52:53.545Z,20.00
2019-05-09T23:55:47.827Z,20.00
